Time;durP1;ratioP1;P1;durP2;ratioP2;P2;SDS_P1;SDS_P2;PMS_P1;PMS_P2;Temp;Humidity;BMP_temperature;BMP_pressure;BME280_temperature;BME280_humidity;BME280_pressure;Samples;Min_cycle;Max_cycle;Signal;HPM_P1;HPM_P2
2024/04/07 00:01:21;;;;;;;0.80;0.80;;;;;;;16.92;73.85;97096.75;5022241;28;20096;-70
2024/04/07 00:03:46;;;;;;;0.70;0.70;;;;;;;16.99;73.90;97085.50;5021919;28;20093;-71
2024/04/07 00:06:12;;;;;;;0.70;0.70;;;;;;;17.04;73.54;97088.66;5021802;28;20544;-71
2024/04/07 00:08:38;;;;;;;0.70;0.70;;;;;;;16.93;73.70;97070.38;5021667;28;20063;-71
2024/04/07 00:11:03;;;;;;;0.70;0.70;;;;;;;17.07;73.12;97101.06;5021213;28;20058;-71
2024/04/07 00:13:30;;;;;;;0.70;0.70;;;;;;;17.08;72.82;97106.22;5021666;28;20057;-70
2024/04/07 00:15:56;;;;;;;0.70;0.70;;;;;;;17.14;71.93;97081.38;5021574;28;20049;-70
2024/04/07 00:18:21;;;;;;;0.70;0.70;;;;;;;15.88;71.96;96921.66;5021546;28;20049;-70
2024/04/07 00:20:47;;;;;;;0.75;0.75;;;;;;;16.96;72.30;97061.94;5021094;28;20049;-71
2024/04/07 00:23:13;;;;;;;0.70;0.70;;;;;;;17.02;70.86;97121.06;5021909;28;20049;-71
2024/04/07 00:25:39;;;;;;;0.70;0.70;;;;;;;17.10;71.92;97145.81;5021963;28;20057;-71
2024/04/07 00:28:06;;;;;;;0.70;0.70;;;;;;;17.19;71.04;97139.75;5021820;28;20053;-70
2024/04/07 00:30:32;;;;;;;0.70;0.70;;;;;;;17.18;72.09;97124.16;5020926;28;20083;-72
2024/04/07 00:32:57;;;;;;;0.70;0.70;;;;;;;17.15;71.39;97144.59;5004930;28;20115;-72
2024/04/07 00:35:23;;;;;;;0.70;0.70;;;;;;;16.31;75.25;97163.34;5021093;28;20057;-69
2024/04/07 00:37:49;;;;;;;0.70;0.70;;;;;;;16.27;77.25;97157.00;5020978;28;20049;-72
2024/04/07 00:40:15;;;;;;;0.70;0.70;;;;;;;16.41;78.53;97151.34;5020357;28;20053;-72
2024/04/07 00:42:47;;;;;;;0.70;0.70;;;;;;;16.49;77.88;97150.16;5021405;28;20053;-72
2024/04/07 00:45:13;;;;;;;0.65;0.65;;;;;;;16.19;77.43;97147.03;5020830;28;20056;-71
2024/04/07 00:47:39;;;;;;;0.70;0.70;;;;;;;16.25;79.62;97156.59;5021803;28;20049;-70
2024/04/07 00:50:05;;;;;;;0.60;0.60;;;;;;;16.18;79.52;97153.03;5020551;28;20060;-73
2024/04/07 00:52:31;;;;;;;0.70;0.70;;;;;;;16.17;79.54;97152.22;5004385;28;20061;-73
2024/04/07 00:54:57;;;;;;;0.70;0.70;;;;;;;15.92;81.83;97151.50;5004935;28;20060;-70
2024/04/07 00:57:24;;;;;;;0.70;0.70;;;;;;;15.89;81.90;97157.09;5021220;28;20347;-72
2024/04/07 00:59:52;;;;;;;0.60;0.60;;;;;;;15.64;82.40;97101.28;5021019;28;20057;-72
2024/04/07 01:02:17;;;;;;;0.60;0.60;;;;;;;15.97;82.17;97151.09;5021870;28;20049;-72
2024/04/07 01:04:43;;;;;;;0.60;0.60;;;;;;;15.85;82.02;97157.13;5020472;28;20057;-74
2024/04/07 01:07:09;;;;;;;0.70;0.70;;;;;;;15.78;82.57;97157.13;5021135;28;20064;-72
2024/04/07 01:09:35;;;;;;;0.60;0.60;;;;;;;15.68;85.11;97151.56;5020134;28;20050;-73
2024/04/07 01:12:11;;;;;;;0.70;0.70;;;;;;;15.68;84.43;97163.50;5020813;28;20067;-74
2024/04/07 01:14:37;;;;;;;0.60;0.60;;;;;;;15.63;85.20;97166.72;5017529;28;20108;-72
2024/04/07 01:17:05;;;;;;;0.60;0.60;;;;;;;15.27;87.58;97170.66;5001331;28;20062;-76
2024/04/07 01:19:31;;;;;;;0.60;0.60;;;;;;;15.21;88.40;97149.94;5009708;28;20057;-76
2024/04/07 01:21:56;;;;;;;0.70;0.70;;;;;;;15.00;88.49;97125.59;5004172;28;20054;-76
2024/04/07 01:24:22;;;;;;;0.70;0.70;;;;;;;15.28;89.37;97161.09;5020931;28;20048;-75
2024/04/07 01:26:48;;;;;;;0.60;0.60;;;;;;;15.17;90.17;97160.31;5020324;28;20558;-76
2024/04/07 01:29:13;;;;;;;0.60;0.60;;;;;;;15.18;90.46;97173.84;5020917;28;20099;-73
2024/04/07 01:31:39;;;;;;;0.60;0.60;;;;;;;15.23;89.22;97169.88;5020956;28;20068;-74
2024/04/07 01:34:05;;;;;;;0.70;0.70;;;;;;;15.19;91.93;97169.06;5020310;28;20052;-75
2024/04/07 01:36:31;;;;;;;0.55;0.55;;;;;;;15.24;93.64;97165.88;5020988;28;20057;-76
2024/04/07 01:38:56;;;;;;;0.63;0.63;;;;;;;15.17;94.34;97160.31;5020946;28;20050;-75
2024/04/07 01:41:22;;;;;;;0.60;0.60;;;;;;;15.16;95.00;97151.13;5020913;28;20053;-75
2024/04/07 01:43:48;;;;;;;0.60;0.60;;;;;;;15.14;95.13;97166.69;5004367;28;20052;-78
2024/04/07 01:46:13;;;;;;;0.60;0.60;;;;;;;15.18;94.71;97178.63;5009583;28;20049;-74
2024/04/07 01:48:40;;;;;;;0.60;0.60;;;;;;;15.10;96.11;97160.28;5020321;28;20053;-70
2024/04/07 01:51:07;;;;;;;0.70;0.70;;;;;;;14.86;99.61;97116.41;5024043;28;20057;-70
2024/04/07 01:53:33;;;;;;;0.60;0.60;;;;;;;15.05;100.00;97146.72;5023975;28;20068;-70
2024/04/07 01:55:59;;;;;;;0.70;0.70;;;;;;;14.84;100.00;97121.59;5007186;28;20056;-69
2024/04/07 01:58:25;;;;;;;0.70;0.70;;;;;;;15.16;100.00;97147.53;5024387;28;20057;-69
2024/04/07 02:00:50;;;;;;;0.70;0.70;;;;;;;14.66;99.25;97078.94;5016698;28;20053;-71
2024/04/07 02:03:16;;;;;;;0.65;0.65;;;;;;;14.55;100.00;97084.50;5024329;28;20057;-72
2024/04/07 02:05:42;;;;;;;0.65;0.65;;;;;;;14.93;100.00;97144.31;5023916;28;20061;-70
2024/04/07 02:08:08;;;;;;;0.60;0.60;;;;;;;14.96;100.00;97143.53;5024008;28;20071;-71
2024/04/07 02:10:34;;;;;;;0.70;0.70;;;;;;;14.83;100.00;97129.16;5007284;28;20060;-71
2024/04/07 02:13:01;;;;;;;0.60;0.60;;;;;;;14.49;100.00;97141.03;5006924;28;20058;-69
2024/04/07 02:15:26;;;;;;;0.60;0.60;;;;;;;14.33;100.00;97138.59;5020525;28;20123;-68
2024/04/07 02:17:52;;;;;;;0.60;0.60;;;;;;;14.56;100.00;97125.13;4987615;28;20062;-70
2024/04/07 02:20:18;;;;;;;0.60;0.60;;;;;;;14.51;100.00;97094.06;5019064;28;20096;-70
2024/04/07 02:22:44;;;;;;;0.60;0.60;;;;;;;14.75;100.00;97115.59;5023562;28;20559;-70
2024/04/07 02:25:10;;;;;;;0.60;0.60;;;;;;;14.72;100.00;97110.81;5023412;28;20103;-68
2024/04/07 02:27:36;;;;;;;0.60;0.60;;;;;;;14.79;100.00;97110.84;5007363;28;20118;-70
2024/04/07 02:30:04;;;;;;;0.60;0.60;;;;;;;14.71;100.00;97093.31;5007334;28;20057;-70
2024/04/07 02:32:32;;;;;;;0.65;0.65;;;;;;;14.80;100.00;97113.22;5023373;28;20613;-70
2024/04/07 02:34:58;;;;;;;0.60;0.60;;;;;;;14.78;100.00;97081.34;5023267;28;20057;-70
2024/04/07 02:37:23;;;;;;;0.60;0.60;;;;;;;14.91;100.00;97113.22;5023620;28;20134;-69
2024/04/07 02:39:49;;;;;;;0.60;0.60;;;;;;;14.75;100.00;97116.41;5007079;28;20049;-67
2024/04/07 02:42:15;;;;;;;0.60;0.60;;;;;;;14.09;100.00;97015.88;5022875;28;20447;-69
2024/04/07 02:50:09;;;;;;;0.60;0.60;;;;;;;14.16;100.00;97049.31;5022834;28;20054;-69
2024/04/07 02:52:35;;;;;;;0.60;0.60;;;;;;;14.41;100.00;97106.75;5006283;28;20076;-69
2024/04/07 02:55:01;;;;;;;0.60;0.60;;;;;;;13.94;100.00;97028.16;5023045;28;20127;-69
2024/04/07 02:57:27;;;;;;;0.60;0.60;;;;;;;14.41;100.00;97119.91;5022950;28;20057;-70
2024/04/07 02:59:53;;;;;;;0.68;0.68;;;;;;;14.41;100.00;97122.69;5022214;28;20054;-70
2024/04/07 03:02:20;;;;;;;0.60;0.60;;;;;;;14.39;100.00;97113.91;5023240;28;20053;-70
2024/04/07 03:04:49;;;;;;;0.60;0.60;;;;;;;14.40;100.00;97109.94;5006284;28;20500;-71
2024/04/07 03:07:15;;;;;;;0.57;0.57;;;;;;;14.18;100.00;97092.31;5023412;28;20092;-70
2024/04/07 03:09:41;;;;;;;0.60;0.60;;;;;;;13.84;100.00;97048.41;5022304;28;21470;-69
2024/04/07 03:12:07;;;;;;;0.60;0.60;;;;;;;13.94;100.00;97083.88;5003192;28;20061;-70
2024/04/07 03:14:32;;;;;;;0.68;0.68;;;;;;;13.95;100.00;97093.81;5011949;28;20082;-68
2024/04/07 03:16:58;;;;;;;0.60;0.60;;;;;;;14.13;100.00;97100.25;5022692;28;20057;-71
2024/04/07 03:19:24;;;;;;;0.60;0.60;;;;;;;14.33;100.00;97121.06;5022342;28;20393;-69
2024/04/07 03:21:50;;;;;;;0.60;0.60;;;;;;;14.32;100.00;97125.06;5022671;28;20331;-71
2024/04/07 03:24:15;;;;;;;0.60;0.60;;;;;;;14.26;100.00;97126.59;5009037;28;20099;-70
2024/04/07 03:26:41;;;;;;;0.60;0.60;;;;;;;13.96;100.00;97089.84;5022415;28;20179;-68
2024/04/07 03:29:07;;;;;;;0.60;0.60;;;;;;;13.89;100.00;97078.66;5022227;28;20049;-70
2024/04/07 03:31:32;;;;;;;0.60;0.60;;;;;;;14.08;100.00;97097.84;5022247;28;20503;-69
2024/04/07 03:33:58;;;;;;;0.60;0.60;;;;;;;14.35;99.94;97140.97;5022262;28;20053;-69
2024/04/07 03:36:24;;;;;;;0.70;0.70;;;;;;;14.39;98.14;97148.16;5006289;28;20461;-69
2024/04/07 03:38:50;;;;;;;0.60;0.60;;;;;;;13.95;99.04;97085.44;5021728;28;20052;-71
2024/04/07 03:41:15;;;;;;;0.60;0.60;;;;;;;14.22;100.00;97153.63;5005917;28;20053;-69
2024/04/07 03:43:41;;;;;;;0.60;0.60;;;;;;;14.37;100.00;97155.34;5022144;28;20164;-69
2024/04/07 03:46:08;;;;;;;0.60;0.60;;;;;;;14.35;100.00;97168.84;5013916;28;20440;-69
2024/04/07 03:48:34;;;;;;;0.70;0.70;;;;;;;14.19;100.00;97159.97;5005400;28;20559;-69
2024/04/07 03:51:00;;;;;;;0.60;0.60;;;;;;;14.18;100.00;97163.97;5022535;28;20058;-69
2024/04/07 03:53:27;;;;;;;0.50;0.50;;;;;;;14.18;100.00;97169.53;5021580;28;20061;-69
2024/04/07 03:55:53;;;;;;;0.60;0.60;;;;;;;14.10;100.00;97167.91;5005527;28;20508;-69
2024/04/07 03:58:19;;;;;;;0.60;0.60;;;;;;;14.02;100.00;97171.84;5005537;28;20059;-69
2024/04/07 04:00:45;;;;;;;0.60;0.60;;;;;;;14.08;100.00;97181.41;5021904;28;20061;-69
2024/04/07 04:03:10;;;;;;;0.52;0.52;;;;;;;14.29;100.00;97176.00;5005301;28;20065;-69
2024/04/07 04:05:36;;;;;;;0.60;0.60;;;;;;;13.97;100.00;97147.13;5004551;28;20232;-68
2024/04/07 04:08:02;;;;;;;0.50;0.50;;;;;;;14.15;100.00;97187.00;5021970;28;20123;-69
2024/04/07 04:10:28;;;;;;;0.60;0.60;;;;;;;14.22;100.00;97181.50;5005306;28;20107;-68
2024/04/07 04:12:54;;;;;;;0.60;0.60;;;;;;;14.23;100.00;97188.66;5020402;28;20057;-69
2024/04/07 04:15:20;;;;;;;0.60;0.60;;;;;;;13.77;100.00;97120.78;5001360;28;20144;-68
2024/04/07 04:17:45;;;;;;;0.60;0.60;;;;;;;14.01;100.00;97192.50;4985833;28;20091;-69
2024/04/07 04:20:11;;;;;;;0.60;0.60;;;;;;;13.76;100.00;97172.06;5015918;28;20049;-70
2024/04/07 04:22:37;;;;;;;0.60;0.60;;;;;;;14.03;100.00;97204.06;5006158;28;20050;-70
2024/04/07 04:25:03;;;;;;;0.60;0.60;;;;;;;14.01;100.00;97209.22;5021892;28;20054;-69
2024/04/07 04:27:29;;;;;;;0.60;0.60;;;;;;;14.20;100.00;97206.16;5021641;28;20084;-69
2024/04/07 04:29:55;;;;;;;0.50;0.50;;;;;;;14.24;100.00;97206.97;5004403;28;20528;-69
2024/04/07 04:32:20;;;;;;;0.63;0.63;;;;;;;14.27;100.00;97200.66;5021791;28;20061;-68
2024/04/07 04:34:46;;;;;;;0.60;0.60;;;;;;;14.61;100.00;97213.94;5020617;28;20057;-68
2024/04/07 04:37:12;;;;;;;0.70;0.70;;;;;;;14.79;99.19;97211.22;5021071;28;20057;-68
2024/04/07 04:39:38;;;;;;;0.60;0.60;;;;;;;14.61;98.02;97160.16;5020693;28;20057;-68
2024/04/07 04:42:04;;;;;;;0.60;0.60;;;;;;;15.00;96.51;97205.72;5021090;28;20060;-70
2024/04/07 04:44:30;;;;;;;0.60;0.60;;;;;;;15.20;93.89;97220.91;5004070;28;20056;-68
2024/04/07 04:46:55;;;;;;;0.60;0.60;;;;;;;15.09;95.13;97208.91;5020696;28;20053;-67
2024/04/07 04:49:24;;;;;;;0.60;0.60;;;;;;;15.13;97.58;97212.50;5020281;28;20057;-68
2024/04/07 04:51:54;;;;;;;0.60;0.60;;;;;;;15.36;93.42;97221.31;5004071;28;20063;-68
2024/04/07 04:54:19;;;;;;;0.68;0.68;;;;;;;15.46;92.50;97223.34;5020400;28;20111;-68
2024/04/07 04:56:45;;;;;;;0.60;0.60;;;;;;;15.62;91.87;97226.53;5004739;28;20053;-68
2024/04/07 04:59:11;;;;;;;0.60;0.60;;;;;;;15.77;91.87;97216.97;5020853;28;20508;-68
2024/04/07 05:01:36;;;;;;;0.60;0.60;;;;;;;15.78;91.15;97210.19;5021225;28;20552;-68
2024/04/07 05:04:02;;;;;;;0.70;0.70;;;;;;;15.84;90.53;97225.34;5021088;28;20068;-68
2024/04/07 05:06:28;;;;;;;0.70;0.70;;;;;;;15.32;91.82;97228.88;5004824;28;20057;-67
2024/04/07 05:08:54;;;;;;;0.70;0.70;;;;;;;15.33;93.17;97229.69;5020422;28;20050;-68
2024/04/07 05:11:20;;;;;;;0.60;0.60;;;;;;;15.69;92.03;97226.56;5020633;28;20103;-67
2024/04/07 05:13:45;;;;;;;0.70;0.70;;;;;;;15.46;90.03;97167.50;5020463;28;20126;-67
2024/04/07 05:16:12;;;;;;;0.60;0.60;;;;;;;15.81;90.11;97187.03;5020170;28;20065;-68
2024/04/07 05:18:39;;;;;;;0.70;0.70;;;;;;;15.97;87.63;97226.53;5020768;28;20504;-68
2024/04/07 05:21:07;;;;;;;0.70;0.70;;;;;;;16.04;86.58;97236.91;5004318;28;20057;-68
2024/04/07 05:23:35;;;;;;;0.65;0.65;;;;;;;15.47;87.81;97152.38;5005426;28;20060;-68
2024/04/07 05:26:11;;;;;;;0.60;0.60;;;;;;;15.41;89.55;97170.72;5006734;28;20049;-68
2024/04/07 05:28:37;;;;;;;0.70;0.70;;;;;;;15.33;89.52;97151.53;5007725;28;20069;-69
2024/04/07 05:31:04;;;;;;;0.70;0.70;;;;;;;16.15;87.94;97235.69;5024615;28;20184;-67
2024/04/07 05:33:31;;;;;;;0.70;0.70;;;;;;;16.24;89.33;97244.47;5024292;28;20076;-67
2024/04/07 05:35:57;;;;;;;0.70;0.70;;;;;;;16.47;88.46;97232.88;5024518;28;20393;-68
2024/04/07 05:38:23;;;;;;;0.70;0.70;;;;;;;16.45;87.60;97230.44;5024442;28;20065;-69
2024/04/07 05:40:56;;;;;;;0.73;0.73;;;;;;;16.48;87.61;97246.44;5023971;28;20057;-68
2024/04/07 05:43:22;;;;;;;0.70;0.70;;;;;;;16.64;85.91;97238.38;5024450;28;20053;-69
2024/04/07 05:45:49;;;;;;;0.70;0.70;;;;;;;16.69;86.75;97239.16;5007649;28;20712;-68
2024/04/07 05:48:15;;;;;;;0.70;0.70;;;;;;;16.82;84.92;97243.91;5023917;28;20108;-69
2024/04/07 05:50:41;;;;;;;0.70;0.70;;;;;;;16.44;84.74;97184.13;5006986;28;20061;-68
2024/04/07 05:53:06;;;;;;;0.70;0.70;;;;;;;16.83;85.01;97250.31;5007663;28;20136;-69
2024/04/07 05:55:36;;;;;;;0.60;0.60;;;;;;;16.74;83.63;97249.94;5007268;28;20486;-68
2024/04/07 05:58:02;;;;;;;0.70;0.70;;;;;;;17.07;81.42;97249.41;5024067;28;20072;-68
2024/04/07 06:00:30;;;;;;;0.70;0.70;;;;;;;17.23;80.45;97258.13;5006871;28;20605;-68
2024/04/07 06:02:56;;;;;;;0.70;0.70;;;;;;;17.43;79.03;97267.59;5024335;28;20583;-67
2024/04/07 06:05:22;;;;;;;0.70;0.70;;;;;;;17.54;79.55;97263.56;5024281;28;20049;-68
2024/04/07 06:07:50;;;;;;;0.70;0.70;;;;;;;17.29;80.42;97222.88;5007608;28;20050;-67
2024/04/07 06:10:15;;;;;;;0.70;0.70;;;;;;;17.68;78.85;97262.66;5007264;28;20479;-66
2024/04/07 06:12:41;;;;;;;0.70;0.70;;;;;;;17.77;78.66;97274.97;5007595;28;20057;-67
2024/04/07 06:15:07;;;;;;;0.75;0.75;;;;;;;17.59;78.24;97209.09;5003845;28;20066;-67
2024/04/07 06:17:33;;;;;;;0.80;0.80;;;;;;;17.97;78.23;97261.22;5003712;28;20085;-67
2024/04/07 06:19:58;;;;;;;0.73;0.73;;;;;;;18.05;76.31;97251.53;5016272;28;20195;-67
2024/04/07 06:22:24;;;;;;;0.70;0.70;;;;;;;18.25;75.48;97275.00;5023720;28;20524;-65
2024/04/07 06:24:50;;;;;;;0.80;0.80;;;;;;;18.41;75.84;97278.06;5023048;28;20049;-66
2024/04/07 06:27:15;;;;;;;0.80;0.80;;;;;;;18.66;74.17;97284.22;5007118;28;20088;-66
2024/04/07 06:29:41;;;;;;;0.70;0.70;;;;;;;18.58;70.48;97246.22;5023035;28;20168;-67
2024/04/07 06:32:07;;;;;;;0.80;0.80;;;;;;;19.13;71.25;97280.44;5023378;28;20061;-67
2024/04/07 06:34:33;;;;;;;0.80;0.80;;;;;;;18.82;69.44;97191.00;5021851;28;20045;-68
2024/04/07 06:36:58;;;;;;;0.90;0.90;;;;;;;19.65;66.73;97283.75;5022725;28;20061;-68
2024/04/07 06:39:24;;;;;;;0.90;0.90;;;;;;;19.60;66.49;97207.56;5023323;28;20054;-68
2024/04/07 06:41:50;;;;;;;0.90;0.90;;;;;;;20.30;65.44;97279.53;5023044;28;20063;-68
2024/04/07 06:44:16;;;;;;;0.90;0.90;;;;;;;20.30;63.39;97296.41;5023616;28;20509;-67
2024/04/07 06:46:42;;;;;;;0.90;0.90;;;;;;;20.41;63.21;97285.78;5023018;28;20054;-67
2024/04/07 06:49:09;;;;;;;0.98;0.98;;;;;;;20.24;63.01;97247.50;5023037;28;20507;-67
2024/04/07 06:51:34;;;;;;;1.00;1.00;;;;;;;20.60;62.58;97293.47;5023071;28;20057;-67
2024/04/07 06:54:00;;;;;;;0.95;0.95;;;;;;;20.53;61.21;97287.97;5023171;28;20053;-67
2024/04/07 06:56:26;;;;;;;0.95;0.95;;;;;;;20.43;61.89;97289.75;5006725;28;20071;-67
2024/04/07 06:58:51;;;;;;;0.88;0.88;;;;;;;20.45;60.79;97280.88;5006605;28;20053;-68
2024/04/07 07:01:17;;;;;;;1.05;1.05;;;;;;;20.41;61.11;97249.19;5022866;28;20084;-67
2024/04/07 07:03:43;;;;;;;0.90;0.90;;;;;;;20.63;59.40;97295.41;5022761;28;20068;-67
2024/04/07 07:06:13;;;;;;;0.88;0.88;;;;;;;20.34;58.09;97292.34;5023068;28;20061;-69
2024/04/07 07:08:42;;;;;;;0.90;0.90;;;;;;;19.71;58.29;97258.81;5022669;28;20127;-66
2024/04/07 07:11:09;;;;;;;0.95;0.95;;;;;;;20.08;56.75;97320.47;5021790;28;20082;-67
2024/04/07 07:13:44;;;;;;;0.80;0.80;;;;;;;19.98;56.81;97327.06;5004390;28;20065;-67
2024/04/07 07:16:10;;;;;;;0.90;0.90;;;;;;;20.01;57.67;97329.03;5021129;28;20053;-66
2024/04/07 07:18:36;;;;;;;0.90;0.90;;;;;;;20.05;57.58;97312.88;5021090;28;20059;-66
2024/04/07 07:21:03;;;;;;;0.80;0.80;;;;;;;18.99;57.81;97308.69;5004967;28;20057;-67
2024/04/07 07:23:29;;;;;;;0.90;0.90;;;;;;;19.12;57.81;97317.38;5004230;28;20061;-67
2024/04/07 07:25:55;;;;;;;0.80;0.80;;;;;;;18.87;56.79;97264.34;5021351;28;20050;-66
2024/04/07 07:28:21;;;;;;;0.80;0.80;;;;;;;18.35;58.05;97302.16;5022045;28;20468;-67
2024/04/07 07:30:47;;;;;;;0.80;0.80;;;;;;;18.81;59.62;97313.72;5022301;28;20080;-67
2024/04/07 07:33:14;;;;;;;0.90;0.90;;;;;;;18.98;59.02;97323.97;5005235;28;20057;-67
2024/04/07 07:35:42;;;;;;;0.80;0.80;;;;;;;18.66;55.85;97273.00;5022212;28;20061;-66
2024/04/07 07:38:08;;;;;;;0.82;0.82;;;;;;;18.97;56.01;97316.75;5022110;28;20056;-67
2024/04/07 07:40:34;;;;;;;0.80;0.80;;;;;;;19.11;56.49;97298.94;5022710;28;20540;-66
2024/04/07 07:43:00;;;;;;;0.90;0.90;;;;;;;19.38;56.27;97314.66;5022352;28;20057;-67
2024/04/07 07:45:25;;;;;;;0.80;0.80;;;;;;;18.76;52.89;97328.19;5021326;28;20053;-65
2024/04/07 07:47:54;;;;;;;0.80;0.80;;;;;;;19.02;54.56;97330.31;5005094;28;20060;-69
2024/04/07 07:50:20;;;;;;;0.80;0.80;;;;;;;19.33;54.30;97287.03;5004729;28;20073;-66
2024/04/07 07:52:46;;;;;;;0.90;0.90;;;;;;;19.95;52.28;97314.63;5004940;28;20092;-65
2024/04/07 07:55:13;;;;;;;0.90;0.90;;;;;;;20.34;53.62;97330.94;5021088;28;20057;-66
2024/04/07 07:57:38;;;;;;;0.90;0.90;;;;;;;20.09;52.67;97334.09;5005283;28;20054;-65
2024/04/07 08:00:05;;;;;;;0.88;0.88;;;;;;;19.77;52.05;97313.31;5021684;28;20049;-65
2024/04/07 08:02:34;;;;;;;0.90;0.90;;;;;;;20.02;52.27;97325.00;5021808;28;20512;-66
2024/04/07 08:04:59;;;;;;;0.90;0.90;;;;;;;19.32;53.19;97338.00;5021637;28;20061;-66
2024/04/07 08:07:25;;;;;;;0.88;0.88;;;;;;;19.99;52.50;97325.84;5021072;28;20565;-67
2024/04/07 08:09:51;;;;;;;0.90;0.90;;;;;;;19.08;52.46;97221.13;5018331;28;20045;-73
2024/04/07 08:12:16;;;;;;;1.00;1.00;;;;;;;19.97;51.92;97322.66;5032438;28;20088;-71
2024/04/07 08:14:42;;;;;;;0.90;0.90;;;;;;;19.76;51.91;97317.38;5023526;28;20527;-66
2024/04/07 08:17:08;;;;;;;0.80;0.80;;;;;;;20.00;52.42;97321.78;5023119;28;20066;-66
2024/04/07 08:19:34;;;;;;;0.90;0.90;;;;;;;20.20;50.82;97286.16;5021830;28;20053;-70
2024/04/07 08:22:00;;;;;;;0.95;0.95;;;;;;;20.04;51.33;97305.69;5019438;28;20064;-67
2024/04/07 08:24:26;;;;;;;0.90;0.90;;;;;;;19.95;52.59;97264.03;5027901;28;20061;-66
2024/04/07 08:26:51;;;;;;;0.80;0.80;;;;;;;19.77;51.73;97302.06;5024618;28;20453;-63
2024/04/07 08:29:19;;;;;;;0.90;0.90;;;;;;;19.74;52.62;97297.31;5032232;28;20060;-66
2024/04/07 08:31:45;;;;;;;0.88;0.88;;;;;;;20.38;51.09;97309.16;5010249;28;20057;-60
2024/04/07 08:34:10;;;;;;;0.90;0.90;;;;;;;19.83;50.49;97210.41;5046097;28;20053;-62
2024/04/07 08:36:36;;;;;;;0.90;0.90;;;;;;;20.15;52.20;97317.59;5022629;28;20387;-62
2024/04/07 08:39:02;;;;;;;0.90;0.90;;;;;;;19.19;51.05;97228.19;5021841;28;20519;-68
2024/04/07 08:41:28;;;;;;;0.85;0.85;;;;;;;20.13;50.03;97323.59;5020281;28;20578;-61
2024/04/07 08:43:55;;;;;;;0.90;0.90;;;;;;;20.74;47.72;97315.72;5024668;28;20132;-62
2024/04/07 08:46:22;;;;;;;0.90;0.90;;;;;;;20.71;48.27;97254.66;5035664;28;20053;-62
2024/04/07 08:48:51;;;;;;;1.00;1.00;;;;;;;20.17;48.56;97262.47;5035132;28;20057;-63
2024/04/07 08:51:18;;;;;;;1.00;1.00;;;;;;;17.57;48.96;96974.19;5020905;28;20057;-61
2024/04/07 08:53:44;;;;;;;0.90;0.90;;;;;;;20.17;50.19;97332.03;5036182;28;20065;-61
2024/04/07 08:56:13;;;;;;;0.90;0.90;;;;;;;20.19;48.84;97307.84;5021470;28;20049;-65
2024/04/07 08:58:40;;;;;;;0.80;0.80;;;;;;;20.19;50.50;97301.44;5041958;28;20064;-63
2024/04/07 09:01:14;;;;;;;1.00;1.00;;;;;;;20.07;49.54;97316.06;5026183;28;20045;-69
2024/04/07 09:03:41;;;;;;;0.90;0.90;;;;;;;20.03;49.06;97323.78;5020285;28;20488;-64
2024/04/07 09:06:07;;;;;;;0.90;0.90;;;;;;;20.39;48.05;97324.81;5033874;28;20591;-64
2024/04/07 09:08:34;;;;;;;0.90;0.90;;;;;;;18.99;48.14;97269.41;5010168;28;20049;-65
2024/04/07 09:10:59;;;;;;;0.80;0.80;;;;;;;19.02;50.15;97296.63;5020199;28;20061;-64
2024/04/07 09:13:25;;;;;;;0.90;0.90;;;;;;;18.95;50.09;97240.56;5003619;28;20067;-63
2024/04/07 09:15:51;;;;;;;0.90;0.90;;;;;;;20.06;48.46;97337.75;5017223;28;20105;-63
2024/04/07 09:18:18;;;;;;;0.90;0.90;;;;;;;19.15;48.60;97283.63;5000523;28;20050;-64
2024/04/07 09:20:44;;;;;;;0.88;0.88;;;;;;;19.37;48.63;97301.84;5019140;28;20251;-65
2024/04/07 09:23:10;;;;;;;0.80;0.80;;;;;;;19.38;48.30;97274.50;5020473;28;20053;-63
2024/04/07 09:25:35;;;;;;;0.80;0.80;;;;;;;20.16;48.28;97342.47;5020351;28;20539;-63
2024/04/07 09:28:03;;;;;;;1.00;1.00;;;;;;;20.25;47.87;97334.28;5020364;28;20409;-63
2024/04/07 09:30:33;;;;;;;0.90;0.90;;;;;;;20.99;46.79;97335.81;5020021;28;20057;-63
2024/04/07 09:32:58;;;;;;;1.00;1.00;;;;;;;21.08;45.58;97248.72;5003897;28;20058;-64
2024/04/07 09:35:25;;;;;;;0.80;0.80;;;;;;;20.68;45.95;97278.03;5020151;28;20072;-66
2024/04/07 09:37:51;;;;;;;0.80;0.80;;;;;;;20.37;45.33;97328.06;5003852;28;20552;-63
2024/04/07 09:40:17;;;;;;;0.90;0.90;;;;;;;20.58;46.11;97330.50;5004324;28;20049;-62
2024/04/07 09:42:45;;;;;;;0.90;0.90;;;;;;;21.35;44.65;97316.16;5020753;28;20098;-65
2024/04/07 09:45:11;;;;;;;1.00;1.00;;;;;;;21.48;44.04;97326.34;5020257;28;20053;-64
2024/04/07 09:47:39;;;;;;;0.90;0.90;;;;;;;21.48;45.57;97317.88;5019527;28;20131;-64
2024/04/07 09:50:26;;;;;;;0.88;0.88;;;;;;;20.70;47.27;97331.91;5018517;28;20060;-63
2024/04/07 09:52:59;;;;;;;0.80;0.80;;;;;;;19.83;49.05;97334.91;5003990;28;20057;-65
2024/04/07 09:55:33;;;;;;;0.73;0.73;;;;;;;20.21;49.22;97324.31;5020086;28;20967;-65
2024/04/07 09:58:00;;;;;;;1.00;1.00;;;;;;;20.49;48.76;97337.91;5018937;28;20096;-64
2024/04/07 10:00:26;;;;;;;0.90;0.90;;;;;;;20.09;47.97;97268.63;5019980;28;20049;-66
2024/04/07 10:02:52;;;;;;;0.90;0.90;;;;;;;19.89;49.16;97291.03;5004081;28;20065;-65
2024/04/07 10:05:18;;;;;;;0.90;0.90;;;;;;;19.76;48.35;97255.50;5018283;28;20053;-66
2024/04/07 10:07:46;;;;;;;0.90;0.90;;;;;;;20.41;48.04;97297.03;5018353;28;20366;-65
2024/04/07 10:10:12;;;;;;;0.90;0.90;;;;;;;21.48;45.67;97342.47;5002874;28;20507;-64
2024/04/07 10:12:38;;;;;;;0.90;0.90;;;;;;;21.18;44.13;97318.13;5005258;28;20057;-64
2024/04/07 10:15:04;;;;;;;0.80;0.80;;;;;;;21.00;45.56;97334.59;5018064;28;20061;-64
2024/04/07 10:17:30;;;;;;;0.90;0.90;;;;;;;21.31;45.23;97326.75;5001944;28;20455;-65
2024/04/07 10:19:58;;;;;;;0.90;0.90;;;;;;;20.26;45.42;97233.78;5013989;28;20062;-65
2024/04/07 10:22:26;;;;;;;0.90;0.90;;;;;;;21.42;44.47;97332.94;5024651;28;20516;-65
2024/04/07 10:24:53;;;;;;;1.00;1.00;;;;;;;21.53;43.40;97339.16;5023271;28;20068;-65
2024/04/07 10:27:25;;;;;;;0.80;0.80;;;;;;;21.53;42.55;97323.00;5023520;28;20064;-65
2024/04/07 10:29:54;;;;;;;0.85;0.85;;;;;;;22.21;42.70;97315.44;5022681;28;20524;-64
2024/04/07 10:32:27;;;;;;;0.90;0.90;;;;;;;22.41;41.65;97327.41;5006818;28;20132;-65
2024/04/07 10:35:09;;;;;;;0.90;0.90;;;;;;;22.02;42.71;97316.28;5006244;28;20068;-65
2024/04/07 10:37:39;;;;;;;0.90;0.90;;;;;;;22.13;43.04;97297.06;5007192;28;20053;-64
2024/04/07 10:40:07;;;;;;;0.90;0.90;;;;;;;21.82;42.99;97314.75;5023053;28;20049;-65
2024/04/07 10:42:34;;;;;;;0.90;0.90;;;;;;;22.04;42.02;97319.47;5023803;28;20054;-66
2024/04/07 10:45:01;;;;;;;1.00;1.00;;;;;;;21.96;42.27;97298.28;5022715;28;20061;-65
2024/04/07 10:47:27;;;;;;;0.95;0.95;;;;;;;22.13;42.08;97314.00;5006491;28;20451;-64
2024/04/07 10:49:55;;;;;;;0.90;0.90;;;;;;;21.74;42.50;97302.81;5022656;28;20061;-66
2024/04/07 10:52:23;;;;;;;0.90;0.90;;;;;;;21.32;41.62;97260.69;5022966;28;20061;-66
2024/04/07 10:54:48;;;;;;;0.93;0.93;;;;;;;20.54;41.77;97312.09;5006735;28;20061;-64
2024/04/07 10:57:15;;;;;;;0.90;0.90;;;;;;;20.85;41.86;97302.25;5022274;28;20429;-64
2024/04/07 10:59:42;;;;;;;0.90;0.90;;;;;;;21.59;42.22;97304.34;5005967;28;20041;-64
2024/04/07 11:02:09;;;;;;;0.93;0.93;;;;;;;22.03;41.89;97305.81;5006356;28;20092;-65
2024/04/07 11:04:35;;;;;;;1.00;1.00;;;;;;;21.89;41.33;97261.78;5022329;28;20057;-65
2024/04/07 11:07:02;;;;;;;1.00;1.00;;;;;;;22.16;40.69;97309.53;5023185;28;20053;-66
2024/04/07 11:09:28;;;;;;;0.90;0.90;;;;;;;21.38;41.38;97271.00;5023280;28;20045;-65
2024/04/07 11:11:55;;;;;;;0.82;0.82;;;;;;;21.63;42.34;97307.91;5021501;28;20132;-65
2024/04/07 11:14:32;;;;;;;0.90;0.90;;;;;;;22.18;39.17;97290.91;5000533;28;20042;-66
2024/04/07 11:17:03;;;;;;;1.00;1.00;;;;;;;22.00;41.06;97273.59;5001015;28;20591;-65
2024/04/07 11:19:30;;;;;;;1.00;1.00;;;;;;;21.23;42.13;97241.53;5009192;28;20045;-66
2024/04/07 11:21:56;;;;;;;0.90;0.90;;;;;;;21.81;41.48;97248.31;5020303;28;20061;-65
2024/04/07 11:24:22;;;;;;;1.00;1.00;;;;;;;22.47;40.29;97279.69;5020495;28;20115;-64
2024/04/07 11:26:49;;;;;;;0.93;0.93;;;;;;;22.56;39.38;97281.94;5020017;28;20570;-66
2024/04/07 11:29:16;;;;;;;0.90;0.90;;;;;;;22.41;38.57;97310.47;5008534;28;20053;-65
2024/04/07 11:31:42;;;;;;;0.90;0.90;;;;;;;22.04;38.84;97284.81;5005407;28;20049;-65
2024/04/07 11:34:08;;;;;;;0.80;0.80;;;;;;;21.78;39.73;97289.44;5021979;28;20409;-65